createdAt,value
2019-04-11T02:28:34.891Z,35.10
2019-04-11T02:31:09.052Z,35.20
2019-04-11T02:33:41.386Z,35.30
2019-04-11T02:36:13.604Z,35.40
2019-04-11T02:38:46.796Z,35.50
2019-04-11T02:41:18.800Z,35.50
2019-04-11T02:43:51.000Z,35.70
2019-04-11T02:46:34.644Z,35.80
2019-04-11T02:48:56.482Z,35.90
2019-04-11T02:51:28.830Z,36.10
2019-04-11T02:53:59.183Z,36.30
2019-04-11T02:56:31.219Z,36.40
2019-04-11T02:59:04.486Z,36.50
2019-04-11T03:01:36.362Z,36.60
2019-04-11T03:04:08.208Z,36.70
2019-04-11T03:06:39.871Z,36.80
2019-04-11T03:09:13.156Z,36.90
2019-04-11T03:11:45.076Z,36.90
2019-04-11T03:14:16.901Z,37.00
2019-04-11T03:16:57.292Z,37.10
2019-04-11T03:19:37.568Z,37.10
2019-04-11T03:21:54.609Z,37.20
2019-04-11T03:24:27.146Z,37.40
2019-04-11T03:27:02.766Z,37.40
2019-04-11T03:29:33.774Z,37.50
2019-04-11T03:32:41.993Z,37.60
2019-04-11T03:35:31.697Z,37.60
2019-04-11T03:37:38.638Z,37.70
2019-04-11T03:40:09.025Z,37.80
2019-04-11T03:42:34.162Z,37.90
2019-04-11T03:45:09.761Z,38.00
2019-04-11T03:47:34.826Z,38.20
2019-04-11T03:50:01.472Z,38.30
2019-04-11T03:52:26.396Z,38.40
2019-04-11T03:54:58.883Z,38.50
2019-04-11T03:57:31.696Z,38.50
2019-04-11T04:00:04.235Z,38.60
2019-04-11T04:02:37.136Z,38.60
2019-04-11T04:05:10.487Z,38.70
2019-04-11T04:07:41.788Z,38.80
2019-04-11T04:10:15.734Z,38.80
2019-04-11T04:12:47.505Z,38.90
2019-04-11T04:15:37.824Z,39.00
2019-04-11T04:17:55.200Z,39.10
2019-04-11T04:20:29.040Z,39.20
2019-04-11T04:23:03.204Z,39.30
2019-04-11T04:25:34.716Z,39.50
2019-04-11T04:28:07.334Z,39.60
2019-04-11T04:30:40.528Z,39.70
2019-04-11T04:33:12.961Z,39.90
2019-04-11T04:35:44.715Z,40.00
2019-04-11T04:38:16.474Z,40.10
2019-04-11T04:41:00.418Z,40.10
2019-04-11T04:43:22.682Z,40.20
2019-04-11T04:46:08.780Z,40.20
2019-04-11T04:48:27.221Z,40.20
2019-04-11T04:51:05.174Z,40.20
2019-04-11T04:53:33.025Z,40.20
2019-04-11T04:56:04.139Z,40.20
2019-04-11T04:58:35.516Z,40.20
2019-04-11T05:01:07.121Z,40.20
2019-04-11T05:03:38.241Z,40.20
2019-04-11T05:06:10.138Z,40.20
2019-04-11T05:08:41.132Z,40.10
2019-04-11T05:11:13.825Z,40.00
2019-04-11T05:13:48.547Z,40.00
2019-04-11T05:16:17.780Z,40.00
2019-04-11T05:18:48.480Z,40.00
2019-04-11T05:21:19.666Z,40.10
2019-04-11T05:23:50.405Z,40.10
2019-04-11T05:26:21.538Z,40.10
2019-04-11T05:28:53.010Z,40.10
2019-04-11T05:31:24.820Z,40.10
2019-04-11T05:33:56.091Z,40.10
2019-04-11T05:36:28.306Z,40.20
2019-04-11T05:39:00.310Z,40.40
2019-04-11T05:41:32.004Z,40.50
2019-04-11T05:44:08.486Z,40.70
2019-04-11T05:46:47.253Z,40.80
2019-04-11T05:49:09.279Z,40.90
2019-04-11T05:51:45.654Z,40.90
2019-04-11T05:54:14.504Z,40.90
2019-04-11T05:56:50.423Z,40.90
2019-04-11T05:59:18.843Z,41.00
2019-04-11T06:01:53.007Z,41.10
2019-04-11T06:04:27.213Z,41.00
2019-04-11T06:07:00.070Z,41.10
2019-04-11T06:09:37.286Z,41.00
2019-04-11T06:12:07.457Z,41.10
2019-04-11T06:14:40.115Z,41.10
2019-04-11T06:17:14.230Z,41.00
2019-04-11T06:19:45.868Z,40.90
2019-04-11T06:22:19.679Z,40.90
2019-04-11T06:24:52.184Z,40.90
2019-04-11T06:27:25.186Z,41.00
2019-04-11T06:29:57.533Z,41.10
2019-04-11T06:32:30.201Z,41.10
2019-04-11T06:35:01.894Z,41.00
2019-04-11T06:37:36.071Z,41.10
2019-04-11T06:40:10.100Z,41.00
2019-04-11T06:42:43.377Z,41.00
2019-04-11T06:45:15.806Z,41.00
2019-04-11T06:47:49.228Z,41.00
2019-04-11T06:50:22.886Z,41.00
2019-04-11T06:52:54.602Z,41.00
2019-04-11T06:55:26.834Z,40.90
2019-04-11T06:57:59.108Z,40.80
2019-04-11T07:00:31.455Z,40.70
2019-04-11T07:03:04.092Z,40.70
2019-04-11T07:05:36.357Z,40.60
2019-04-11T07:08:08.187Z,40.70
2019-04-11T07:10:40.673Z,40.70
2019-04-11T07:13:12.756Z,40.70
2019-04-11T07:15:44.898Z,40.80
2019-04-11T07:18:18.233Z,40.80
2019-04-11T07:20:50.593Z,40.70
2019-04-11T07:23:24.242Z,40.70
2019-04-11T07:25:56.619Z,40.60
2019-04-11T07:28:29.477Z,40.70
2019-04-11T07:31:02.397Z,40.60
2019-04-11T07:33:33.623Z,40.70
2019-04-11T07:36:05.972Z,40.70
2019-04-11T07:38:38.880Z,40.80
2019-04-11T07:41:11.318Z,40.90
2019-04-11T07:43:43.216Z,41.10
2019-04-11T07:46:15.504Z,41.20
2019-04-11T07:48:46.925Z,41.30
2019-04-11T07:51:19.648Z,41.30
2019-04-11T07:53:50.841Z,41.30
2019-04-11T07:56:23.193Z,41.30
2019-04-11T07:58:56.416Z,41.20
2019-04-11T08:01:29.440Z,41.10
2019-04-11T08:04:01.751Z,40.90
2019-04-11T08:06:34.065Z,40.80
2019-04-11T08:09:07.184Z,40.70
2019-04-11T08:11:40.057Z,40.70
2019-04-11T08:14:12.618Z,40.60
2019-04-11T08:16:45.070Z,40.60
2019-04-11T08:19:20.308Z,40.50
2019-04-11T08:21:52.483Z,40.60
2019-04-11T08:24:26.916Z,40.70
2019-04-11T08:26:58.822Z,40.80
2019-04-11T08:29:30.740Z,40.80
2019-04-11T08:32:04.569Z,40.90
2019-04-11T08:34:37.697Z,41.10
2019-04-11T08:37:09.372Z,41.10
2019-04-11T08:39:41.567Z,41.10
2019-04-11T08:42:14.976Z,41.00
2019-04-11T08:44:45.985Z,40.90
2019-04-11T08:47:18.232Z,40.80
2019-04-11T08:49:50.182Z,40.70
2019-04-11T08:52:22.557Z,40.70
2019-04-11T08:54:55.731Z,40.60
2019-04-11T08:57:28.237Z,40.60
2019-04-11T09:00:01.708Z,40.50
2019-04-11T09:02:35.359Z,40.50
2019-04-11T09:05:14.670Z,40.50
2019-04-11T09:07:43.456Z,40.50
2019-04-11T09:10:17.832Z,40.50
2019-04-11T09:12:50.959Z,40.50
2019-04-11T09:15:24.429Z,40.40
2019-04-11T09:18:04.278Z,40.20
2019-04-11T09:20:31.682Z,40.20
2019-04-11T09:23:03.770Z,40.20
2019-04-11T09:25:36.955Z,40.20
2019-04-11T09:28:09.416Z,40.20
2019-04-11T09:30:41.183Z,40.20
2019-04-11T09:33:14.944Z,40.10
2019-04-11T09:38:42.346Z,40.00
2019-04-11T09:41:16.398Z,40.00
2019-04-11T09:43:48.359Z,40.10
2019-04-11T09:46:22.085Z,40.10
2019-04-11T09:48:54.599Z,40.10
2019-04-11T09:51:29.183Z,40.10
2019-04-11T09:54:01.506Z,40.10
2019-04-11T09:56:33.831Z,40.00
2019-04-11T09:59:06.806Z,40.00
2019-04-11T10:01:38.007Z,40.00
2019-04-11T10:04:10.838Z,40.00
2019-04-11T10:06:42.336Z,39.90
2019-04-11T10:09:13.542Z,39.90
2019-04-11T10:11:46.329Z,39.80
2019-04-11T10:14:18.131Z,39.80
2019-04-11T10:16:50.615Z,39.70
2019-04-11T10:19:24.334Z,39.50
2019-04-11T10:21:56.909Z,39.50
2019-04-11T10:24:30.423Z,39.40
2019-04-11T10:27:03.091Z,39.30
2019-04-11T10:29:36.264Z,39.20
2019-04-11T10:32:08.722Z,39.20
2019-04-11T10:34:41.757Z,39.10
2019-04-11T10:37:15.766Z,39.00
2019-04-11T10:39:49.211Z,38.90
2019-04-11T10:42:20.368Z,38.80
2019-04-11T10:44:52.628Z,38.80
2019-04-11T10:47:25.099Z,38.70
2019-04-11T10:49:57.138Z,38.60
2019-04-11T10:52:29.355Z,38.50
2019-04-11T10:55:01.313Z,38.40
2019-04-11T10:57:33.569Z,38.30
2019-04-11T11:00:07.086Z,38.30
2019-04-11T11:02:39.813Z,38.20
2019-04-11T11:05:12.818Z,38.00
2019-04-11T11:07:45.764Z,38.00
2019-04-11T11:10:17.806Z,37.80
2019-04-11T11:12:50.244Z,37.80
2019-04-11T11:15:23.288Z,37.70
2019-04-11T11:18:25.132Z,37.60
2019-04-11T11:20:31.239Z,37.50
2019-04-11T11:23:00.146Z,37.40
2019-04-11T11:25:33.024Z,37.40
